Portada
METAR-TAF:

METAR-TAF

Aeropuertos :

Creston, Iowa, Estados Unidos

latitud: 41-01N, longitud: 094-22W, altitud: 394 m

Observación

El informe se hizo hace 16 minutos, a las 00:35 UTC
Viento 4 kt del este
Temperatura 22°C
Humedad 60%
Presión 1016 hPa
Visibilidad: 16.1 km
Escasas nubes a una altura de 8500 ft

METAR: KCSQ 290035Z AUTO 09004KT 10SM FEW085 22/14 A3000 RMK AO2

Hora: 19:51 (00:51 UTC)


TAF: falta

Observaciones y pronósticos meteorológicos de más de 4000 aeropuertos (mensajes METAR y TAF).

Los puntos amarillos y rojos representan las estaciones disponibles.

Ponga el ratón en el punto deseado para ver el nombre de la estación.

Haga clic para ver las observaciones y los pronósticos meteorológicos.

Para cambiar el mapa : haga clic en los botones verdes con una cruz de color negro para hacer un zoom, en el botón verde con un guión para alejar o en las flechas verdes para mapas adyacentes.


METAR-TAF: